sensor_id;sensor_type;location;lat;lon;timestamp;pressure;altitude;pressure_sealevel;temperature
65316;BMP280;51920;53.952;10.292;2022-11-20T00:00:43;100671.69;;;1.11
65316;BMP280;51920;53.952;10.292;2022-11-20T00:03:09;100677.00;;;1.11
65316;BMP280;51920;53.952;10.292;2022-11-20T00:05:34;100670.41;;;1.08
65316;BMP280;51920;53.952;10.292;2022-11-20T00:08:00;100670.59;;;1.12
65316;BMP280;51920;53.952;10.292;2022-11-20T00:10:25;100669.19;;;1.14
65316;BMP280;51920;53.952;10.292;2022-11-20T00:12:51;100674.69;;;1.18
65316;BMP280;51920;53.952;10.292;2022-11-20T00:15:17;100671.22;;;1.18
65316;BMP280;51920;53.952;10.292;2022-11-20T00:17:42;100669.03;;;1.20
65316;BMP280;51920;53.952;10.292;2022-11-20T00:20:08;100669.34;;;1.18
65316;BMP280;51920;53.952;10.292;2022-11-20T00:22:34;100681.25;;;1.21
65316;BMP280;51920;53.952;10.292;2022-11-20T00:24:59;100676.75;;;1.21
65316;BMP280;51920;53.952;10.292;2022-11-20T00:27:24;100674.53;;;1.23
65316;BMP280;51920;53.952;10.292;2022-11-20T00:29:50;100672.34;;;1.25
65316;BMP280;51920;53.952;10.292;2022-11-20T00:32:15;100670.44;;;1.26
65316;BMP280;51920;53.952;10.292;2022-11-20T00:34:40;100677.06;;;1.28
65316;BMP280;51920;53.952;10.292;2022-11-20T00:37:06;100673.28;;;1.29
65316;BMP280;51920;53.952;10.292;2022-11-20T00:39:31;100675.00;;;1.25
65316;BMP280;51920;53.952;10.292;2022-11-20T00:41:57;100666.69;;;1.27
65316;BMP280;51920;53.952;10.292;2022-11-20T00:44:22;100670.16;;;1.27
65316;BMP280;51920;53.952;10.292;2022-11-20T00:46:47;100666.22;;;1.25
65316;BMP280;51920;53.952;10.292;2022-11-20T00:49:13;100669.69;;;1.25
65316;BMP280;51920;53.952;10.292;2022-11-20T00:51:38;100660.91;;;1.25
65316;BMP280;51920;53.952;10.292;2022-11-20T00:54:04;100664.94;;;1.22
65316;BMP280;51920;53.952;10.292;2022-11-20T00:56:29;100670.28;;;1.22
65316;BMP280;51920;53.952;10.292;2022-11-20T00:58:55;100659.16;;;1.20
65316;BMP280;51920;53.952;10.292;2022-11-20T01:01:23;100672.34;;;1.25
65316;BMP280;51920;53.952;10.292;2022-11-20T01:03:54;100665.44;;;1.24
65316;BMP280;51920;53.952;10.292;2022-11-20T01:06:22;100653.38;;;1.27
65316;BMP280;51920;53.952;10.292;2022-11-20T01:08:49;100658.38;;;1.28
65316;BMP280;51920;53.952;10.292;2022-11-20T01:11:18;100661.06;;;1.28
65316;BMP280;51920;53.952;10.292;2022-11-20T01:13:45;100659.47;;;1.27
65316;BMP280;51920;53.952;10.292;2022-11-20T01:16:41;100664.81;;;1.27
65316;BMP280;51920;53.952;10.292;2022-11-20T01:19:10;100661.38;;;1.27
65316;BMP280;51920;53.952;10.292;2022-11-20T01:21:39;100648.50;;;1.29
65316;BMP280;51920;53.952;10.292;2022-11-20T01:24:06;100654.13;;;1.27
65316;BMP280;51920;53.952;10.292;2022-11-20T01:26:34;100647.41;;;1.30
65316;BMP280;51920;53.952;10.292;2022-11-20T01:29:00;100653.66;;;1.25
65316;BMP280;51920;53.952;10.292;2022-11-20T01:31:33;100648.81;;;1.27
65316;BMP280;51920;53.952;10.292;2022-11-20T01:34:02;100644.75;;;1.30
65316;BMP280;51920;53.952;10.292;2022-11-20T01:36:29;100648.81;;;1.27
65316;BMP280;51920;53.952;10.292;2022-11-20T01:38:56;100641.41;;;1.24
65316;BMP280;51920;53.952;10.292;2022-11-20T01:41:23;100630.75;;;1.24
65316;BMP280;51920;53.952;10.292;2022-11-20T01:44:11;100637.19;;;1.23
65316;BMP280;51920;53.952;10.292;2022-11-20T01:46:39;100633.41;;;1.24
65316;BMP280;51920;53.952;10.292;2022-11-20T01:49:16;100629.31;;;1.18
65316;BMP280;51920;53.952;10.292;2022-11-20T01:54:19;100628.41;;;1.23
65316;BMP280;51920;53.952;10.292;2022-11-20T01:56:48;100615.06;;;1.23
65316;BMP280;51920;53.952;10.292;2022-11-20T01:59:17;100626.34;;;1.20
65316;BMP280;51920;53.952;10.292;2022-11-20T02:01:43;100616.00;;;1.18
65316;BMP280;51920;53.952;10.292;2022-11-20T02:04:10;100610.97;;;1.17
65316;BMP280;51920;53.952;10.292;2022-11-20T02:06:40;100608.75;;;1.19
65316;BMP280;51920;53.952;10.292;2022-11-20T02:09:07;100607.22;;;1.18
65316;BMP280;51920;53.952;10.292;2022-11-20T02:11:33;100601.56;;;1.19
65316;BMP280;51920;53.952;10.292;2022-11-20T02:13:59;100606.41;;;1.17
65316;BMP280;51920;53.952;10.292;2022-11-20T02:18:54;100585.88;;;1.18
65316;BMP280;51920;53.952;10.292;2022-11-20T02:24:25;100588.84;;;1.16
65316;BMP280;51920;53.952;10.292;2022-11-20T02:27:20;100599.53;;;1.16
65316;BMP280;51920;53.952;10.292;2022-11-20T02:29:54;100587.41;;;1.19
65316;BMP280;51920;53.952;10.292;2022-11-20T02:32:24;100588.84;;;1.16
65316;BMP280;51920;53.952;10.292;2022-11-20T02:34:50;100579.72;;;1.17
65316;BMP280;51920;53.952;10.292;2022-11-20T02:37:15;100580.84;;;1.16
65316;BMP280;51920;53.952;10.292;2022-11-20T02:39:43;100576.59;;;1.15
65316;BMP280;51920;53.952;10.292;2022-11-20T02:42:09;100584.44;;;1.20
65316;BMP280;51920;53.952;10.292;2022-11-20T02:44:35;100579.72;;;1.17
65316;BMP280;51920;53.952;10.292;2022-11-20T02:47:00;100575.97;;;1.18
65316;BMP280;51920;53.952;10.292;2022-11-20T02:49:25;100569.72;;;1.14
65316;BMP280;51920;53.952;10.292;2022-11-20T02:51:51;100570.47;;;1.14
65316;BMP280;51920;53.952;10.292;2022-11-20T02:54:17;100559.78;;;1.06
65316;BMP280;51920;53.952;10.292;2022-11-20T02:56:43;100575.50;;;1.16
65316;BMP280;51920;53.952;10.292;2022-11-20T02:59:09;100576.28;;;1.17
65316;BMP280;51920;53.952;10.292;2022-11-20T03:01:35;100576.28;;;1.17
65316;BMP280;51920;53.952;10.292;2022-11-20T03:04:00;100579.72;;;1.17
65316;BMP280;51920;53.952;10.292;2022-11-20T03:06:25;100582.09;;;1.19
65316;BMP280;51920;53.952;10.292;2022-11-20T03:08:51;100573.31;;;1.18
65316;BMP280;51920;53.952;10.292;2022-11-20T03:11:16;100577.72;;;1.23
65316;BMP280;51920;53.952;10.292;2022-11-20T03:13:42;100576.59;;;1.24
65316;BMP280;51920;53.952;10.292;2022-11-20T03:16:10;100567.34;;;1.21
65316;BMP280;51920;53.952;10.292;2022-11-20T03:18:37;100556.84;;;1.16
65316;BMP280;51920;53.952;10.292;2022-11-20T03:21:02;100571.41;;;1.19
65316;BMP280;51920;53.952;10.292;2022-11-20T03:23:29;100570.19;;;1.25
65316;BMP280;51920;53.952;10.292;2022-11-20T03:25:56;100555.72;;;1.17
65316;BMP280;51920;53.952;10.292;2022-11-20T03:28:31;100560.28;;;1.25
65316;BMP280;51920;53.952;10.292;2022-11-20T03:30:56;100561.72;;;1.23
65316;BMP280;51920;53.952;10.292;2022-11-20T03:33:22;100549.78;;;1.20
65316;BMP280;51920;53.952;10.292;2022-11-20T03:35:47;100556.69;;;1.21
65316;BMP280;51920;53.952;10.292;2022-11-20T03:38:12;100556.38;;;1.14
65316;BMP280;51920;53.952;10.292;2022-11-20T03:40:38;100544.59;;;1.15
65316;BMP280;51920;53.952;10.292;2022-11-20T03:43:03;100547.88;;;1.21
65316;BMP280;51920;53.952;10.292;2022-11-20T03:45:28;100538.78;;;1.13
65316;BMP280;51920;53.952;10.292;2022-11-20T03:47:54;100540.81;;;1.16
65316;BMP280;51920;53.952;10.292;2022-11-20T03:50:19;100536.25;;;1.08
65316;BMP280;51920;53.952;10.292;2022-11-20T03:52:44;100532.03;;;1.07
65316;BMP280;51920;53.952;10.292;2022-11-20T03:55:10;100535.00;;;1.05
65316;BMP280;51920;53.952;10.292;2022-11-20T03:57:35;100536.56;;;1.06
65316;BMP280;51920;53.952;10.292;2022-11-20T04:00:01;100532.03;;;1.07
65316;BMP280;51920;53.952;10.292;2022-11-20T04:02:29;100538.63;;;1.09
65316;BMP280;51920;53.952;10.292;2022-11-20T04:04:54;100552.72;;;1.10
65316;BMP280;51920;53.952;10.292;2022-11-20T04:07:20;100533.28;;;1.01
65316;BMP280;51920;53.952;10.292;2022-11-20T04:09:46;100542.84;;;1.02
65316;BMP280;51920;53.952;10.292;2022-11-20T04:12:11;100537.38;;;0.98
65316;BMP280;51920;53.952;10.292;2022-11-20T04:14:36;100536.41;;;1.03
65316;BMP280;51920;53.952;10.292;2022-11-20T04:17:03;100538.47;;;1.06
65316;BMP280;51920;53.952;10.292;2022-11-20T04:19:28;100532.34;;;1.05
65316;BMP280;51920;53.952;10.292;2022-11-20T04:21:54;100526.22;;;1.05
65316;BMP280;51920;53.952;10.292;2022-11-20T04:24:19;100530.47;;;1.06
65316;BMP280;51920;53.952;10.292;2022-11-20T04:26:45;100523.22;;;0.98
65316;BMP280;51920;53.952;10.292;2022-11-20T04:29:11;100533.59;;;1.08
65316;BMP280;51920;53.952;10.292;2022-11-20T04:31:36;100525.44;;;1.04
65316;BMP280;51920;53.952;10.292;2022-11-20T04:34:04;100528.56;;;1.06
65316;BMP280;51920;53.952;10.292;2022-11-20T04:36:30;100531.41;;;1.10
65316;BMP280;51920;53.952;10.292;2022-11-20T04:39:00;100524.81;;;0.99
65316;BMP280;51920;53.952;10.292;2022-11-20T04:41:31;100518.38;;;1.00
65316;BMP280;51920;53.952;10.292;2022-11-20T04:44:00;100529.06;;;1.00
65316;BMP280;51920;53.952;10.292;2022-11-20T04:46:29;100531.53;;;1.05
65316;BMP280;51920;53.952;10.292;2022-11-20T04:48:54;100525.28;;;1.01
65316;BMP280;51920;53.952;10.292;2022-11-20T04:51:20;100519.16;;;1.09
65316;BMP280;51920;53.952;10.292;2022-11-20T04:53:46;100514.47;;;1.06
65316;BMP280;51920;53.952;10.292;2022-11-20T04:56:12;100515.22;;;1.06
65316;BMP280;51920;53.952;10.292;2022-11-20T04:58:38;100515.53;;;1.05
65316;BMP280;51920;53.952;10.292;2022-11-20T05:01:13;100511.63;;;1.02
65316;BMP280;51920;53.952;10.292;2022-11-20T05:03:40;100504.25;;;0.99
65316;BMP280;51920;53.952;10.292;2022-11-20T05:06:07;100505.03;;;0.91
65316;BMP280;51920;53.952;10.292;2022-11-20T05:08:33;100512.56;;;0.98
65316;BMP280;51920;53.952;10.292;2022-11-20T05:11:25;100502.38;;;1.00
65316;BMP280;51920;53.952;10.292;2022-11-20T05:13:51;100509.28;;;1.01
65316;BMP280;51920;53.952;10.292;2022-11-20T05:16:22;100506.91;;;0.99
65316;BMP280;51920;53.952;10.292;2022-11-20T05:18:48;100510.53;;;0.94
65316;BMP280;51920;53.952;10.292;2022-11-20T05:21:14;100508.19;;;0.93
65316;BMP280;51920;53.952;10.292;2022-11-20T05:23:39;100504.56;;;0.89
65316;BMP280;51920;53.952;10.292;2022-11-20T05:26:07;100501.41;;;0.87
65316;BMP280;51920;53.952;10.292;2022-11-20T05:28:33;100508.19;;;0.93
65316;BMP280;51920;53.952;10.292;2022-11-20T05:31:07;100505.50;;;0.93
65316;BMP280;51920;53.952;10.292;2022-11-20T05:33:34;100502.69;;;0.89
65316;BMP280;51920;53.952;10.292;2022-11-20T05:36:00;100497.34;;;0.89
65316;BMP280;51920;53.952;10.292;2022-11-20T05:38:25;100499.72;;;0.91
65316;BMP280;51920;53.952;10.292;2022-11-20T05:40:51;100486.69;;;0.89
65316;BMP280;51920;53.952;10.292;2022-11-20T05:43:16;100490.44;;;0.88
65316;BMP280;51920;53.952;10.292;2022-11-20T05:45:41;100484.94;;;0.85
65316;BMP280;51920;53.952;10.292;2022-11-20T05:48:06;100480.56;;;0.80
65316;BMP280;51920;53.952;10.292;2022-11-20T05:50:32;100468.94;;;0.76
65316;BMP280;51920;53.952;10.292;2022-11-20T05:52:58;100486.84;;;0.84
65316;BMP280;51920;53.952;10.292;2022-11-20T05:55:24;100477.41;;;0.78
65316;BMP280;51920;53.952;10.292;2022-11-20T05:57:50;100480.72;;;0.84
65316;BMP280;51920;53.952;10.292;2022-11-20T06:00:15;100475.41;;;0.84
65316;BMP280;51920;53.952;10.292;2022-11-20T06:03:06;100491.38;;;0.84
65316;BMP280;51920;53.952;10.292;2022-11-20T06:05:33;100477.56;;;0.82
65316;BMP280;51920;53.952;10.292;2022-11-20T06:08:00;100479.75;;;0.80
65316;BMP280;51920;53.952;10.292;2022-11-20T06:10:28;100480.38;;;0.85
65316;BMP280;51920;53.952;10.292;2022-11-20T06:12:53;100486.22;;;0.87
65316;BMP280;51920;53.952;10.292;2022-11-20T06:15:19;100486.06;;;0.84
65316;BMP280;51920;53.952;10.292;2022-11-20T06:17:44;100478.84;;;0.84
65316;BMP280;51920;53.952;10.292;2022-11-20T06:20:09;100480.38;;;0.85
65316;BMP280;51920;53.952;10.292;2022-11-20T06:22:35;100476.63;;;0.86
65316;BMP280;51920;53.952;10.292;2022-11-20T06:25:00;100473.03;;;0.82
65316;BMP280;51920;53.952;10.292;2022-11-20T06:27:26;100483.38;;;0.84
65316;BMP280;51920;53.952;10.292;2022-11-20T06:29:52;100489.97;;;0.86
65316;BMP280;51920;53.952;10.292;2022-11-20T06:32:17;100477.72;;;0.85
65316;BMP280;51920;53.952;10.292;2022-11-20T06:34:42;100480.41;;;0.76
65316;BMP280;51920;53.952;10.292;2022-11-20T06:37:08;100480.41;;;0.76
65316;BMP280;51920;53.952;10.292;2022-11-20T06:39:34;100475.22;;;0.80
65316;BMP280;51920;53.952;10.292;2022-11-20T06:41:59;100483.69;;;0.82
65316;BMP280;51920;53.952;10.292;2022-11-20T06:44:25;100476.16;;;0.84
65316;BMP280;51920;53.952;10.292;2022-11-20T06:46:50;100475.22;;;0.71
65316;BMP280;51920;53.952;10.292;2022-11-20T06:49:15;100473.50;;;0.75
65316;BMP280;51920;53.952;10.292;2022-11-20T06:51:41;100476.63;;;0.77
65316;BMP280;51920;53.952;10.292;2022-11-20T06:54:06;100470.50;;;0.77
65316;BMP280;51920;53.952;10.292;2022-11-20T06:56:31;100468.94;;;0.76
65316;BMP280;51920;53.952;10.292;2022-11-20T06:58:57;100462.66;;;0.72
65316;BMP280;51920;53.952;10.292;2022-11-20T07:01:22;100465.97;;;0.77
65316;BMP280;51920;53.952;10.292;2022-11-20T07:03:49;100475.84;;;0.77
65316;BMP280;51920;53.952;10.292;2022-11-20T07:06:16;100472.06;;;0.78
65316;BMP280;51920;53.952;10.292;2022-11-20T07:08:41;100470.50;;;0.77
65316;BMP280;51920;53.952;10.292;2022-11-20T07:11:06;100476.31;;;0.79
65316;BMP280;51920;53.952;10.292;2022-11-20T07:13:32;100472.06;;;0.78
65316;BMP280;51920;53.952;10.292;2022-11-20T07:16:03;100477.72;;;0.85
65316;BMP280;51920;53.952;10.292;2022-11-20T07:18:29;100479.91;;;0.83
65316;BMP280;51920;53.952;10.292;2022-11-20T07:20:54;100476.94;;;0.85
65316;BMP280;51920;53.952;10.292;2022-11-20T07:23:21;100472.06;;;0.78
65316;BMP280;51920;53.952;10.292;2022-11-20T07:25:46;100469.91;;;0.80
65316;BMP280;51920;53.952;10.292;2022-11-20T07:28:12;100477.56;;;0.90
65316;BMP280;51920;53.952;10.292;2022-11-20T07:30:37;100468.03;;;0.89
65316;BMP280;51920;53.952;10.292;2022-11-20T07:33:03;100483.22;;;0.98
65316;BMP280;51920;53.952;10.292;2022-11-20T07:35:28;100466.75;;;0.95
65316;BMP280;51920;53.952;10.292;2022-11-20T07:37:53;100458.75;;;0.95
65316;BMP280;51920;53.952;10.292;2022-11-20T07:40:19;100459.22;;;0.98
65316;BMP280;51920;53.952;10.292;2022-11-20T07:42:52;100462.38;;;1.00
65316;BMP280;51920;53.952;10.292;2022-11-20T07:45:20;100471.47;;;0.99
65316;BMP280;51920;53.952;10.292;2022-11-20T07:47:45;100465.03;;;0.91
65316;BMP280;51920;53.952;10.292;2022-11-20T07:50:12;100467.56;;;0.96
65316;BMP280;51920;53.952;10.292;2022-11-20T07:52:37;100463.00;;;0.97
65316;BMP280;51920;53.952;10.292;2022-11-20T07:55:03;100436.47;;;0.74
65316;BMP280;51920;53.952;10.292;2022-11-20T07:57:29;100470.84;;;0.93
65316;BMP280;51920;53.952;10.292;2022-11-20T07:59:54;100472.75;;;0.92
65316;BMP280;51920;53.952;10.292;2022-11-20T08:02:19;100475.41;;;0.92
65316;BMP280;51920;53.952;10.292;2022-11-20T08:04:45;100460.16;;;0.84
65316;BMP280;51920;53.952;10.292;2022-11-20T08:07:10;100471.31;;;0.86
65316;BMP280;51920;53.952;10.292;2022-11-20T08:09:35;100475.84;;;0.86
65316;BMP280;51920;53.952;10.292;2022-11-20T08:12:01;100471.47;;;0.90
65316;BMP280;51920;53.952;10.292;2022-11-20T08:14:45;100475.72;;;0.91
65316;BMP280;51920;53.952;10.292;2022-11-20T08:20:01;100471.31;;;0.95
65316;BMP280;51920;53.952;10.292;2022-11-20T08:22:27;100477.41;;;0.95
65316;BMP280;51920;53.952;10.292;2022-11-20T08:24:52;100465.81;;;0.91
65316;BMP280;51920;53.952;10.292;2022-11-20T08:27:17;100477.88;;;0.98
65316;BMP280;51920;53.952;10.292;2022-11-20T08:29:43;100482.59;;;0.92
65316;BMP280;51920;53.952;10.292;2022-11-20T08:32:08;100479.00;;;0.97
65316;BMP280;51920;53.952;10.292;2022-11-20T08:34:33;100475.88;;;0.94
65316;BMP280;51920;53.952;10.292;2022-11-20T08:36:59;100485.13;;;0.97
65316;BMP280;51920;53.952;10.292;2022-11-20T08:39:24;100489.06;;;1.00
65316;BMP280;51920;53.952;10.292;2022-11-20T08:41:49;100490.28;;;0.93
65316;BMP280;51920;53.952;10.292;2022-11-20T08:44:15;100490.44;;;0.88
65316;BMP280;51920;53.952;10.292;2022-11-20T08:46:41;100489.34;;;0.89
65316;BMP280;51920;53.952;10.292;2022-11-20T08:49:10;100489.50;;;0.93
65316;BMP280;51920;53.952;10.292;2022-11-20T08:51:36;100487.31;;;0.95
65316;BMP280;51920;53.952;10.292;2022-11-20T08:54:01;100491.56;;;0.96
65316;BMP280;51920;53.952;10.292;2022-11-20T08:56:27;100492.50;;;1.00
65316;BMP280;51920;53.952;10.292;2022-11-20T08:58:52;100490.44;;;0.97
65316;BMP280;51920;53.952;10.292;2022-11-20T09:01:19;100494.38;;;1.17
65316;BMP280;51920;53.952;10.292;2022-11-20T09:03:45;100491.69;;;1.26
65316;BMP280;51920;53.952;10.292;2022-11-20T09:06:10;100486.19;;;1.40
65316;BMP280;51920;53.952;10.292;2022-11-20T09:08:36;100492.28;;;1.49
65316;BMP280;51920;53.952;10.292;2022-11-20T09:11:02;100494.81;;;1.45
65316;BMP280;51920;53.952;10.292;2022-11-20T09:13:28;100491.53;;;1.31
65316;BMP280;51920;53.952;10.292;2022-11-20T09:15:55;100485.91;;;1.32
65316;BMP280;51920;53.952;10.292;2022-11-20T09:18:21;100495.47;;;1.33
65316;BMP280;51920;53.952;10.292;2022-11-20T09:20:47;100487.47;;;1.33
65316;BMP280;51920;53.952;10.292;2022-11-20T09:23:13;100487.75;;;1.41
65316;BMP280;51920;53.952;10.292;2022-11-20T09:25:38;100476.78;;;1.42
65316;BMP280;51920;53.952;10.292;2022-11-20T09:28:11;100476.94;;;1.46
65316;BMP280;51920;53.952;10.292;2022-11-20T09:30:46;100491.78;;;1.64
65316;BMP280;51920;53.952;10.292;2022-11-20T09:33:11;100496.63;;;1.80
65316;BMP280;51920;53.952;10.292;2022-11-20T09:35:44;100488.31;;;1.81
65316;BMP280;51920;53.952;10.292;2022-11-20T09:38:10;100485.97;;;1.80
65316;BMP280;51920;53.952;10.292;2022-11-20T09:46:32;100488.31;;;1.81
65316;BMP280;51920;53.952;10.292;2022-11-20T09:52:00;100485.66;;;1.81
65316;BMP280;51920;53.952;10.292;2022-11-20T09:54:30;100490.41;;;2.05
65316;BMP280;51920;53.952;10.292;2022-11-20T09:59:42;100484.00;;;2.78
65316;BMP280;51920;53.952;10.292;2022-11-20T10:04:53;100497.75;;;3.10
65316;BMP280;51920;53.952;10.292;2022-11-20T10:07:23;100496.94;;;3.31
65316;BMP280;51920;53.952;10.292;2022-11-20T10:09:54;100487.09;;;3.01
65316;BMP280;51920;53.952;10.292;2022-11-20T10:18:09;100492.47;;;3.35
65316;BMP280;51920;53.952;10.292;2022-11-20T10:20:55;100495.00;;;3.52
65316;BMP280;51920;53.952;10.292;2022-11-20T10:26:21;100484.78;;;3.91
65316;BMP280;51920;53.952;10.292;2022-11-20T10:31:37;100481.44;;;4.59
65316;BMP280;51920;53.952;10.292;2022-11-20T10:34:27;100481.13;;;4.49
65316;BMP280;51920;53.952;10.292;2022-11-20T10:36:57;100482.53;;;4.18
65316;BMP280;51920;53.952;10.292;2022-11-20T10:39:39;100483.63;;;3.80
65316;BMP280;51920;53.952;10.292;2022-11-20T10:42:11;100481.50;;;3.61
65316;BMP280;51920;53.952;10.292;2022-11-20T10:44:39;100481.72;;;4.30
65316;BMP280;51920;53.952;10.292;2022-11-20T10:47:27;100483.84;;;3.87
65316;BMP280;51920;53.952;10.292;2022-11-20T10:49:55;100478.50;;;3.87
65316;BMP280;51920;53.952;10.292;2022-11-20T10:55:42;100470.00;;;3.85
65316;BMP280;51920;53.952;10.292;2022-11-20T10:58:16;100464.66;;;3.73
65316;BMP280;51920;53.952;10.292;2022-11-20T11:00:45;100466.53;;;3.47
65316;BMP280;51920;53.952;10.292;2022-11-20T11:03:31;100470.78;;;3.15
65316;BMP280;51920;53.952;10.292;2022-11-20T11:06:10;100470.41;;;3.04
65316;BMP280;51920;53.952;10.292;2022-11-20T11:08:38;100473.38;;;2.91
65316;BMP280;51920;53.952;10.292;2022-11-20T11:11:20;100471.47;;;2.70
65316;BMP280;51920;53.952;10.292;2022-11-20T11:13:45;100448.41;;;2.99
65316;BMP280;51920;53.952;10.292;2022-11-20T11:16:23;100468.25;;;2.98
65316;BMP280;51920;53.952;10.292;2022-11-20T11:18:48;100461.56;;;2.92
65316;BMP280;51920;53.952;10.292;2022-11-20T11:21:21;100463.00;;;3.22
65316;BMP280;51920;53.952;10.292;2022-11-20T11:23:57;100452.31;;;3.22
65316;BMP280;51920;53.952;10.292;2022-11-20T11:26:24;100452.00;;;3.03
65316;BMP280;51920;53.952;10.292;2022-11-20T11:29:00;100453.75;;;2.86
65316;BMP280;51920;53.952;10.292;2022-11-20T11:31:33;100449.53;;;2.77
65316;BMP280;51920;53.952;10.292;2022-11-20T11:34:15;100455.97;;;2.84
65316;BMP280;51920;53.952;10.292;2022-11-20T11:36:41;100447.75;;;2.89
65316;BMP280;51920;53.952;10.292;2022-11-20T11:39:27;100451.94;;;3.12
65316;BMP280;51920;53.952;10.292;2022-11-20T11:41:53;100454.59;;;3.12
65316;BMP280;51920;53.952;10.292;2022-11-20T11:44:21;100433.84;;;3.08
65316;BMP280;51920;53.952;10.292;2022-11-20T11:47:29;100431.94;;;2.97
65316;BMP280;51920;53.952;10.292;2022-11-20T11:55:09;100439.81;;;3.26
65316;BMP280;51920;53.952;10.292;2022-11-20T12:00:22;100442.72;;;3.34
65316;BMP280;51920;53.952;10.292;2022-11-20T12:02:57;100433.66;;;3.14
65316;BMP280;51920;53.952;10.292;2022-11-20T12:06:01;100430.06;;;3.09
65316;BMP280;51920;53.952;10.292;2022-11-20T12:11:33;100428.88;;;3.19
65316;BMP280;51920;53.952;10.292;2022-11-20T12:14:18;100425.56;;;3.35
65316;BMP280;51920;53.952;10.292;2022-11-20T12:16:45;100432.38;;;3.44
65316;BMP280;51920;53.952;10.292;2022-11-20T12:19:12;100426.44;;;3.39
65316;BMP280;51920;53.952;10.292;2022-11-20T12:21:42;100430.84;;;3.10
65316;BMP280;51920;53.952;10.292;2022-11-20T12:24:33;100425.28;;;3.15
65316;BMP280;51920;53.952;10.292;2022-11-20T12:33:12;100420.31;;;2.93
65316;BMP280;51920;53.952;10.292;2022-11-20T12:36:07;100411.59;;;2.83
65316;BMP280;51920;53.952;10.292;2022-11-20T12:50:11;100418.38;;;3.14
65316;BMP280;51920;53.952;10.292;2022-11-20T12:56:21;100419.28;;;3.18
65316;BMP280;51920;53.952;10.292;2022-11-20T13:01:51;100422.53;;;3.24
65316;BMP280;51920;53.952;10.292;2022-11-20T13:04:28;100419.69;;;3.08
65316;BMP280;51920;53.952;10.292;2022-11-20T13:07:01;100418.78;;;3.04
65316;BMP280;51920;53.952;10.292;2022-11-20T13:09:27;100419.03;;;3.11
65316;BMP280;51920;53.952;10.292;2022-11-20T13:12:08;100410.06;;;2.95
65316;BMP280;51920;53.952;10.292;2022-11-20T13:17:51;100416.75;;;3.22
65316;BMP280;51920;53.952;10.292;2022-11-20T13:20:19;100416.16;;;3.16
65316;BMP280;51920;53.952;10.292;2022-11-20T13:22:52;100417.97;;;2.91
65316;BMP280;51920;53.952;10.292;2022-11-20T13:25:30;100414.16;;;2.59
65316;BMP280;51920;53.952;10.292;2022-11-20T13:28:39;100407.25;;;2.58
65316;BMP280;51920;53.952;10.292;2022-11-20T13:30:50;100394.28;;;2.47
65316;BMP280;51920;53.952;10.292;2022-11-20T13:33:29;100395.09;;;2.39
65316;BMP280;51920;53.952;10.292;2022-11-20T13:35:59;100384.09;;;2.41
65316;BMP280;51920;53.952;10.292;2022-11-20T13:38:25;100384.59;;;2.34
65316;BMP280;51920;53.952;10.292;2022-11-20T13:40:57;100381.75;;;2.39
65316;BMP280;51920;53.952;10.292;2022-11-20T13:43:27;100384.16;;;2.32
65316;BMP280;51920;53.952;10.292;2022-11-20T13:46:05;100380.00;;;2.22
65316;BMP280;51920;53.952;10.292;2022-11-20T13:48:34;100374.22;;;2.20
65316;BMP280;51920;53.952;10.292;2022-11-20T13:51:04;100383.81;;;2.13
65316;BMP280;51920;53.952;10.292;2022-11-20T13:53:48;100378.66;;;2.07
65316;BMP280;51920;53.952;10.292;2022-11-20T13:59:38;100371.44;;;2.08
65316;BMP280;51920;53.952;10.292;2022-11-20T14:02:16;100383.53;;;2.05
65316;BMP280;51920;53.952;10.292;2022-11-20T14:04:47;100373.78;;;2.09
65316;BMP280;51920;53.952;10.292;2022-11-20T14:07:13;100379.13;;;2.09
65316;BMP280;51920;53.952;10.292;2022-11-20T14:09:38;100374.97;;;2.21
65316;BMP280;51920;53.952;10.292;2022-11-20T14:12:15;100371.19;;;2.22
65316;BMP280;51920;53.952;10.292;2022-11-20T14:14:51;100367.41;;;2.23
65316;BMP280;51920;53.952;10.292;2022-11-20T14:17:29;100370.53;;;2.25
65316;BMP280;51920;53.952;10.292;2022-11-20T14:19:59;100365.88;;;2.13
65316;BMP280;51920;53.952;10.292;2022-11-20T14:22:26;100364.25;;;2.29
65316;BMP280;51920;53.952;10.292;2022-11-20T14:27:38;100368.28;;;2.06
65316;BMP280;51920;53.952;10.292;2022-11-20T14:30:04;100365.97;;;2.04
65316;BMP280;51920;53.952;10.292;2022-11-20T14:32:30;100351.94;;;2.07
65316;BMP280;51920;53.952;10.292;2022-11-20T14:35:02;100353.06;;;2.06
65316;BMP280;51920;53.952;10.292;2022-11-20T14:37:35;100352.75;;;2.08
65316;BMP280;51920;53.952;10.292;2022-11-20T14:40:01;100344.25;;;2.06
65316;BMP280;51920;53.952;10.292;2022-11-20T14:42:28;100346.16;;;2.05
65316;BMP280;51920;53.952;10.292;2022-11-20T14:45:00;100336.78;;;1.99
65316;BMP280;51920;53.952;10.292;2022-11-20T14:47:28;100339.75;;;1.98
65316;BMP280;51920;53.952;10.292;2022-11-20T14:49:55;100336.50;;;1.92
65316;BMP280;51920;53.952;10.292;2022-11-20T14:52:25;100337.81;;;1.86
65316;BMP280;51920;53.952;10.292;2022-11-20T14:54:56;100335.63;;;1.79
65316;BMP280;51920;53.952;10.292;2022-11-20T14:57:33;100331.13;;;1.71
65316;BMP280;51920;53.952;10.292;2022-11-20T15:02:47;100336.06;;;1.60
65316;BMP280;51920;53.952;10.292;2022-11-20T15:05:15;100332.63;;;1.51
65316;BMP280;51920;53.952;10.292;2022-11-20T15:07:43;100334.22;;;1.43
65316;BMP280;51920;53.952;10.292;2022-11-20T15:10:25;100332.84;;;1.37
65316;BMP280;51920;53.952;10.292;2022-11-20T15:12:56;100318.59;;;1.24
65316;BMP280;51920;53.952;10.292;2022-11-20T15:15:30;100334.63;;;1.24
65316;BMP280;51920;53.952;10.292;2022-11-20T15:17:57;100332.59;;;1.21
65316;BMP280;51920;53.952;10.292;2022-11-20T15:20:29;100334.19;;;1.13
65316;BMP280;51920;53.952;10.292;2022-11-20T15:22:55;100313.00;;;1.08
65316;BMP280;51920;53.952;10.292;2022-11-20T15:25:20;100314.44;;;1.06
65316;BMP280;51920;53.952;10.292;2022-11-20T15:27:48;100314.16;;;0.99
65316;BMP280;51920;53.952;10.292;2022-11-20T15:30:17;100310.56;;;0.94
65316;BMP280;51920;53.952;10.292;2022-11-20T15:32:44;100312.44;;;0.85